Time;durP1;ratioP1;P1;durP2;ratioP2;P2;SDS_P1;SDS_P2;PMS_P1;PMS_P2;Temp;Humidity;BMP_temperature;BMP_pressure;BME280_temperature;BME280_humidity;BME280_pressure;Samples;Min_cycle;Max_cycle;Signal;HPM_P1;HPM_P2
2023/04/23 00:01:05;;;;;;;;;;;;;;;17.12;100.00;100611.28;5076715;28;20028;-51
2023/04/23 00:03:34;;;;;;;;;;;;;;;17.16;100.00;100615.13;5076393;28;19917;-51
2023/04/23 00:06:04;;;;;;;;;;;;;;;16.66;100.00;100607.75;5076672;28;19971;-55
2023/04/23 00:08:31;;;;;;;;;;;;;;;16.68;100.00;100603.75;5076060;28;19928;-55
2023/04/23 00:10:56;;;;;;;;;;;;;;;16.78;100.00;100589.63;5076750;28;19923;-50
2023/04/23 00:13:22;;;;;;;;;;;;;;;16.81;100.00;100588.28;5076677;28;19921;-53
2023/04/23 00:15:47;;;;;;;;;;;;;;;17.04;100.00;100590.88;5076671;28;19923;-52
2023/04/23 00:18:15;;;;;;;;;;;;;;;17.06;100.00;100586.06;5076628;28;20024;-51
2023/04/23 00:20:42;;;;;;;;;;;;;;;16.80;100.00;100583.94;5076615;28;19920;-49
2023/04/23 00:23:08;;;;;;;;;;;;;;;16.45;100.00;100583.91;5076902;28;19948;-50
2023/04/23 00:25:33;;;;;;;;;;;;;;;17.02;100.00;100587.59;5076738;28;19939;-55
2023/04/23 00:27:59;;;;;;;;;;;;;;;16.74;100.00;100583.88;5076695;28;19939;-51
2023/04/23 00:30:24;;;;;;;;;;;;;;;16.83;100.00;100583.47;5076652;28;19951;-52
2023/04/23 00:32:49;;;;;;;;;;;;;;;16.69;100.00;100582.94;5076382;28;19916;-52
2023/04/23 00:35:15;;;;;;;;;;;;;;;16.82;100.00;100576.44;5076406;28;19984;-52
2023/04/23 00:37:41;;;;;;;;;;;;;;;17.04;100.00;100581.97;5076578;28;19933;-51
2023/04/23 00:40:06;;;;;;;;;;;;;;;16.89;100.00;100566.31;5070578;28;19925;-54
2023/04/23 00:42:32;;;;;;;;;;;;;;;16.80;100.00;100570.44;5072705;28;19916;-52
2023/04/23 00:44:58;;;;;;;;;;;;;;;16.86;100.00;100564.09;5076332;28;19927;-53
2023/04/23 00:47:24;;;;;;;;;;;;;;;17.09;100.00;100560.44;5076461;28;19948;-54
2023/04/23 00:49:54;;;;;;;;;;;;;;;16.96;100.00;100560.75;5076387;28;19917;-52
2023/04/23 00:52:20;;;;;;;;;;;;;;;16.62;100.00;100550.72;5073107;28;19921;-52
2023/04/23 00:54:45;;;;;;;;;;;;;;;16.92;100.00;100544.22;5070279;28;19921;-51
2023/04/23 00:57:11;;;;;;;;;;;;;;;16.97;100.00;100546.97;5072785;28;20008;-51
2023/04/23 00:59:36;;;;;;;;;;;;;;;16.82;100.00;100547.56;5075156;28;19927;-54
2023/04/23 01:02:02;;;;;;;;;;;;;;;16.94;100.00;100550.19;5073223;28;19943;-49
2023/04/23 01:04:29;;;;;;;;;;;;;;;16.98;100.00;100550.50;5075620;28;19952;-55
2023/04/23 01:06:55;;;;;;;;;;;;;;;16.86;100.00;100546.00;5075966;28;19924;-53
2023/04/23 01:09:21;;;;;;;;;;;;;;;16.62;100.00;100539.94;5075112;28;19917;-58
2023/04/23 01:11:47;;;;;;;;;;;;;;;16.66;100.00;100543.78;5074934;28;19988;-56
2023/04/23 01:14:13;;;;;;;;;;;;;;;16.81;100.00;100542.38;5075521;28;19917;-54
2023/04/23 01:16:38;;;;;;;;;;;;;;;17.23;100.00;100533.91;5075585;28;19970;-57
2023/04/23 01:19:08;;;;;;;;;;;;;;;16.86;100.00;100539.78;5075572;28;19916;-51
2023/04/23 01:21:35;;;;;;;;;;;;;;;16.38;100.00;100531.94;5090479;28;19912;-54
2023/04/23 01:24:01;;;;;;;;;;;;;;;16.21;100.00;100529.19;5075495;28;19916;-56
2023/04/23 01:26:27;;;;;;;;;;;;;;;15.98;100.00;100530.09;5074656;28;19954;-52
2023/04/23 01:28:53;;;;;;;;;;;;;;;16.19;100.00;100528.63;5074498;28;19917;-56
2023/04/23 01:31:18;;;;;;;;;;;;;;;16.29;100.00;100519.91;5075435;28;19917;-53
2023/04/23 01:33:44;;;;;;;;;;;;;;;16.66;100.00;100522.19;5075116;28;19932;-53
2023/04/23 01:36:10;;;;;;;;;;;;;;;16.99;100.00;100517.88;5075263;28;19928;-53
2023/04/23 01:38:36;;;;;;;;;;;;;;;17.00;100.00;100510.59;5075023;28;19916;-55
2023/04/23 01:41:02;;;;;;;;;;;;;;;16.89;100.00;100506.88;5075345;28;19988;-51
2023/04/23 01:43:27;;;;;;;;;;;;;;;16.97;100.00;100511.88;5072374;28;19943;-54
2023/04/23 01:45:53;;;;;;;;;;;;;;;17.10;100.00;100507.25;5075010;28;19924;-53
2023/04/23 01:48:18;;;;;;;;;;;;;;;17.00;100.00;100514.09;5074279;28;20046;-54
2023/04/23 01:50:44;;;;;;;;;;;;;;;17.01;100.00;100507.63;5070021;28;19940;-52
2023/04/23 01:53:09;;;;;;;;;;;;;;;16.79;100.00;100512.94;5073695;28;19925;-57
2023/04/23 01:55:38;;;;;;;;;;;;;;;16.88;100.00;100507.94;5074015;28;19917;-54
2023/04/23 01:58:05;;;;;;;;;;;;;;;16.48;100.00;100515.09;5074631;28;20009;-54
2023/04/23 02:00:30;;;;;;;;;;;;;;;15.95;100.00;100509.00;5073399;28;19959;-53
2023/04/23 02:02:56;;;;;;;;;;;;;;;16.00;100.00;100506.41;5074752;28;19925;-54
2023/04/23 02:05:22;;;;;;;;;;;;;;;16.04;100.00;100511.09;5074774;28;19928;-52
2023/04/23 02:07:49;;;;;;;;;;;;;;;16.12;100.00;100503.66;5074795;28;19927;-55
2023/04/23 02:10:14;;;;;;;;;;;;;;;16.51;100.00;100501.16;5072705;28;19916;-55
2023/04/23 02:12:40;;;;;;;;;;;;;;;16.40;100.00;100505.53;5074890;28;19924;-51
2023/04/23 02:15:06;;;;;;;;;;;;;;;16.63;100.00;100498.38;5074215;28;19956;-52
2023/04/23 02:17:32;;;;;;;;;;;;;;;16.20;100.00;100493.31;5073340;28;19920;-53
2023/04/23 02:19:58;;;;;;;;;;;;;;;16.10;100.00;100490.41;5073648;28;19927;-50
2023/04/23 02:22:25;;;;;;;;;;;;;;;16.28;100.00;100491.28;5071651;28;19963;-51
2023/04/23 02:24:51;;;;;;;;;;;;;;;15.91;100.00;100487.09;5074882;28;19916;-54
2023/04/23 02:27:18;;;;;;;;;;;;;;;15.67;100.00;100484.44;5073803;28;19927;-53
2023/04/23 02:29:43;;;;;;;;;;;;;;;16.10;100.00;100484.22;5073233;28;19913;-51
2023/04/23 02:32:10;;;;;;;;;;;;;;;16.37;100.00;100479.00;5058077;28;19921;-51
2023/04/23 02:34:35;;;;;;;;;;;;;;;16.13;100.00;100481.03;5073849;28;19943;-49
2023/04/23 02:37:00;;;;;;;;;;;;;;;16.56;100.00;100481.50;5071475;28;19932;-51
2023/04/23 02:39:25;;;;;;;;;;;;;;;16.74;100.00;100473.16;5072773;28;19935;-49
2023/04/23 02:41:51;;;;;;;;;;;;;;;16.65;100.00;100473.81;5073716;28;20052;-50
2023/04/23 02:44:17;;;;;;;;;;;;;;;16.69;100.00;100477.66;5070717;28;19948;-55
2023/04/23 02:46:42;;;;;;;;;;;;;;;17.12;100.00;100481.59;5088878;28;19988;-50
2023/04/23 02:49:08;;;;;;;;;;;;;;;16.70;100.00;100477.41;5073544;28;19927;-53
2023/04/23 02:51:33;;;;;;;;;;;;;;;16.59;100.00;100481.00;5072682;28;19925;-50
2023/04/23 02:53:58;;;;;;;;;;;;;;;16.40;100.00;100478.56;5073457;28;19927;-53
2023/04/23 02:56:25;;;;;;;;;;;;;;;16.44;100.00;100485.09;5070067;28;21310;-51
2023/04/23 02:58:51;;;;;;;;;;;;;;;16.96;100.00;100480.53;5071222;28;19932;-53
2023/04/23 03:01:17;;;;;;;;;;;;;;;16.62;100.00;100477.84;5072599;28;19913;-53
2023/04/23 03:03:42;;;;;;;;;;;;;;;16.46;100.00;100488.38;5067870;28;19956;-51
2023/04/23 03:06:08;;;;;;;;;;;;;;;16.87;100.00;100484.72;5069959;28;19921;-50
2023/04/23 03:08:34;;;;;;;;;;;;;;;17.07;100.00;100495.03;5071136;28;19924;-53
2023/04/23 03:10:59;;;;;;;;;;;;;;;16.38;100.00;100491.47;5071876;28;19917;-50
2023/04/23 03:13:25;;;;;;;;;;;;;;;16.27;100.00;100484.25;5073006;28;19956;-51
2023/04/23 03:15:51;;;;;;;;;;;;;;;16.29;100.00;100482.94;5073226;28;19927;-51
2023/04/23 03:18:17;;;;;;;;;;;;;;;16.43;100.00;100483.47;5071511;28;19912;-51
2023/04/23 03:20:46;;;;;;;;;;;;;;;16.42;100.00;100473.72;5070972;28;19917;-54
2023/04/23 03:23:11;;;;;;;;;;;;;;;16.62;100.00;100475.13;5071586;28;19920;-55
2023/04/23 03:25:37;;;;;;;;;;;;;;;16.73;100.00;100462.63;5071776;28;19939;-54
2023/04/23 03:28:02;;;;;;;;;;;;;;;16.78;100.00;100468.09;5070868;28;19919;-54
2023/04/23 03:30:28;;;;;;;;;;;;;;;16.43;100.00;100467.28;5079860;28;19924;-52
2023/04/23 03:32:55;;;;;;;;;;;;;;;17.01;100.00;100456.31;5072598;28;19928;-53
2023/04/23 03:35:21;;;;;;;;;;;;;;;16.95;100.00;100457.28;5071558;28;20026;-49
2023/04/23 03:37:48;;;;;;;;;;;;;;;16.44;100.00;100455.41;5054478;28;19921;-53
2023/04/23 03:40:14;;;;;;;;;;;;;;;16.86;100.00;100464.19;5069205;28;19931;-53
2023/04/23 03:42:41;;;;;;;;;;;;;;;16.37;100.00;100462.03;5071105;28;20034;-55
2023/04/23 03:45:10;;;;;;;;;;;;;;;16.69;100.00;100453.34;5070032;28;19917;-51
2023/04/23 03:47:35;;;;;;;;;;;;;;;17.10;100.00;100469.41;5071121;28;19917;-53
2023/04/23 03:50:02;;;;;;;;;;;;;;;17.25;100.00;100477.72;5070916;28;19939;-50
2023/04/23 03:52:28;;;;;;;;;;;;;;;16.70;100.00;100461.22;5066762;28;19928;-52
2023/04/23 03:54:54;;;;;;;;;;;;;;;16.82;100.00;100461.13;5032968;28;19976;-54
2023/04/23 03:57:26;;;;;;;;;;;;;;;16.33;100.00;100448.19;5034781;28;19927;-52
2023/04/23 04:00:12;;;;;;;;;;;;;;;16.76;100.00;100448.63;5052442;28;19917;-55
2023/04/23 04:02:41;;;;;;;;;;;;;;;16.65;100.00;100454.91;5019213;28;19917;-51
2023/04/23 04:05:06;;;;;;;;;;;;;;;16.66;100.00;100457.38;5035470;28;19917;-52
2023/04/23 04:07:33;;;;;;;;;;;;;;;16.81;100.00;100464.06;5035346;28;19925;-53
2023/04/23 04:09:58;;;;;;;;;;;;;;;16.45;100.00;100462.44;5051287;28;19917;-54
2023/04/23 04:12:24;;;;;;;;;;;;;;;16.49;100.00;100460.88;5035450;28;19935;-53
2023/04/23 04:14:50;;;;;;;;;;;;;;;16.76;100.00;100452.13;5052785;28;19921;-55
2023/04/23 04:17:16;;;;;;;;;;;;;;;16.86;100.00;100461.47;5052312;28;19929;-54
2023/04/23 04:19:41;;;;;;;;;;;;;;;16.79;100.00;100456.22;5052597;28;19928;-55
2023/04/23 04:22:08;;;;;;;;;;;;;;;16.70;100.00;100455.81;5052353;28;19917;-53
2023/04/23 04:24:34;;;;;;;;;;;;;;;16.36;100.00;100460.38;5052403;28;19917;-52
2023/04/23 04:27:00;;;;;;;;;;;;;;;16.54;100.00;100459.34;5052503;28;19933;-52
2023/04/23 04:29:25;;;;;;;;;;;;;;;16.10;100.00;100458.03;5052282;28;19917;-55
2023/04/23 04:31:52;;;;;;;;;;;;;;;16.46;100.00;100458.69;5052411;28;19917;-55
2023/04/23 04:34:17;;;;;;;;;;;;;;;16.45;100.00;100453.50;5052362;28;19986;-52
2023/04/23 04:36:42;;;;;;;;;;;;;;;16.78;100.00;100452.69;5051901;28;19933;-55
2023/04/23 04:39:08;;;;;;;;;;;;;;;16.76;100.00;100462.94;5052265;28;19931;-54
2023/04/23 04:41:35;;;;;;;;;;;;;;;16.52;100.00;100458.75;5052177;28;20027;-54
2023/04/23 04:44:00;;;;;;;;;;;;;;;16.65;100.00;100463.03;5054215;28;19917;-52
2023/04/23 04:46:27;;;;;;;;;;;;;;;16.43;100.00;100466.44;5056068;28;19940;-52
2023/04/23 04:48:53;;;;;;;;;;;;;;;16.48;100.00;100475.44;5055815;28;19988;-56
2023/04/23 04:51:19;;;;;;;;;;;;;;;16.78;100.00;100465.41;5055750;28;19932;-55
2023/04/23 04:53:45;;;;;;;;;;;;;;;16.14;100.00;100466.47;5070685;28;20005;-53
2023/04/23 04:56:10;;;;;;;;;;;;;;;16.85;100.00;100465.25;5075751;28;19924;-54
2023/04/23 04:58:36;;;;;;;;;;;;;;;16.90;100.00;100460.72;5075928;28;19940;-54
2023/04/23 05:01:01;;;;;;;;;;;;;;;17.01;100.00;100453.59;5075724;28;19974;-53
2023/04/23 05:03:27;;;;;;;;;;;;;;;16.82;100.00;100449.50;5076006;28;19916;-52
2023/04/23 05:05:55;;;;;;;;;;;;;;;16.82;100.00;100461.13;5075788;28;20015;-51
2023/04/23 05:08:20;;;;;;;;;;;;;;;17.04;100.00;100455.81;5075686;28;19921;-51
2023/04/23 05:10:49;;;;;;;;;;;;;;;16.99;100.00;100453.03;5075473;28;19917;-51
2023/04/23 05:13:15;;;;;;;;;;;;;;;16.48;100.00;100453.03;5075765;28;19921;-51
2023/04/23 05:15:40;;;;;;;;;;;;;;;16.24;100.00;100453.16;5075466;28;19978;-54
2023/04/23 05:18:06;;;;;;;;;;;;;;;16.52;100.00;100466.84;5075649;28;19936;-52
2023/04/23 05:20:31;;;;;;;;;;;;;;;16.64;100.00;100464.91;5073864;28;19928;-52
2023/04/23 05:22:58;;;;;;;;;;;;;;;16.60;100.00;100466.44;5075706;28;19917;-50
2023/04/23 05:25:24;;;;;;;;;;;;;;;16.69;100.00;100469.56;5075480;28;19916;-50
2023/04/23 05:27:50;;;;;;;;;;;;;;;16.73;100.00;100463.44;5075363;28;19925;-55
2023/04/23 05:30:15;;;;;;;;;;;;;;;16.56;100.00;100462.59;5075423;28;19924;-55
2023/04/23 05:32:40;;;;;;;;;;;;;;;16.36;100.00;100465.78;5075349;28;19917;-53
2023/04/23 05:35:06;;;;;;;;;;;;;;;16.63;100.00;100465.97;5075121;28;19952;-55
2023/04/23 05:37:32;;;;;;;;;;;;;;;16.52;100.00;100466.84;5075195;28;19925;-53
2023/04/23 05:39:58;;;;;;;;;;;;;;;16.66;100.00;100470.88;5074854;28;19950;-52
2023/04/23 05:42:23;;;;;;;;;;;;;;;16.83;100.00;100467.34;5075229;28;19917;-56
2023/04/23 05:44:49;;;;;;;;;;;;;;;17.01;100.00;100472.50;5075086;28;19967;-55
2023/04/23 05:47:15;;;;;;;;;;;;;;;17.40;100.00;100465.50;5074779;28;19917;-53
2023/04/23 05:49:40;;;;;;;;;;;;;;;17.21;100.00;100465.78;5074953;28;19917;-55
2023/04/23 05:52:06;;;;;;;;;;;;;;;16.84;100.00;100467.09;5073724;28;19970;-51
2023/04/23 05:54:32;;;;;;;;;;;;;;;17.42;100.00;100466.06;5054626;28;19927;-52
2023/04/23 05:56:57;;;;;;;;;;;;;;;17.03;100.00;100464.19;5054842;28;19988;-50
2023/04/23 05:59:23;;;;;;;;;;;;;;;17.00;100.00;100470.88;5054711;28;19917;-54
2023/04/23 06:01:48;;;;;;;;;;;;;;;17.26;100.00;100471.25;5054681;28;19939;-51
2023/04/23 06:04:14;;;;;;;;;;;;;;;17.39;100.00;100461.94;5054687;28;19917;-50
2023/04/23 06:06:41;;;;;;;;;;;;;;;17.73;100.00;100461.84;5054599;28;19917;-55
2023/04/23 06:09:06;;;;;;;;;;;;;;;17.31;100.00;100462.41;5054545;28;19928;-51
2023/04/23 06:11:32;;;;;;;;;;;;;;;17.37;100.00;100468.69;5054883;28;19944;-55
2023/04/23 06:13:58;;;;;;;;;;;;;;;17.59;100.00;100466.81;5054100;28;19925;-53
2023/04/23 06:16:23;;;;;;;;;;;;;;;17.13;100.00;100468.91;5054517;28;19925;-56
2023/04/23 06:18:49;;;;;;;;;;;;;;;17.91;100.00;100457.97;5054358;28;19917;-54
2023/04/23 06:21:15;;;;;;;;;;;;;;;17.54;100.00;100452.41;5054175;28;19977;-54
2023/04/23 06:23:40;;;;;;;;;;;;;;;17.57;100.00;100457.31;5054260;28;19925;-54
2023/04/23 06:26:06;;;;;;;;;;;;;;;17.98;100.00;100448.84;5054184;28;19924;-50
2023/04/23 06:28:31;;;;;;;;;;;;;;;17.61;100.00;100442.22;5054231;28;19986;-51
2023/04/23 06:31:20;;;;;;;;;;;;;;;17.62;100.00;100449.25;5052945;28;19928;-55
2023/04/23 06:33:46;;;;;;;;;;;;;;;18.12;100.00;100452.00;5036572;28;19917;-50
2023/04/23 06:36:13;;;;;;;;;;;;;;;17.65;100.00;100445.25;5053888;28;19981;-51
2023/04/23 06:38:40;;;;;;;;;;;;;;;18.09;100.00;100442.50;5053858;28;19924;-50
2023/04/23 06:41:05;;;;;;;;;;;;;;;18.04;100.00;100437.06;5054059;28;19940;-54
2023/04/23 06:43:31;;;;;;;;;;;;;;;17.89;100.00;100437.69;5053467;28;19917;-54
2023/04/23 06:46:16;;;;;;;;;;;;;;;18.29;100.00;100435.66;5053875;28;19970;-53
2023/04/23 06:48:42;;;;;;;;;;;;;;;18.31;100.00;100430.81;5053714;28;19921;-52
2023/04/23 06:51:07;;;;;;;;;;;;;;;17.78;100.00;100431.34;5053532;28;19944;-53
2023/04/23 06:53:33;;;;;;;;;;;;;;;17.91;100.00;100428.22;5053471;28;19949;-50
2023/04/23 06:55:58;;;;;;;;;;;;;;;18.25;100.00;100429.13;5053526;28;19917;-53
2023/04/23 06:58:29;;;;;;;;;;;;;;;18.36;100.00;100424.63;5052569;28;19917;-51
2023/04/23 07:00:58;;;;;;;;;;;;;;;18.09;100.00;100442.50;5053445;28;19936;-56
2023/04/23 07:03:26;;;;;;;;;;;;;;;18.40;100.00;100431.16;5036586;28;19917;-56
2023/04/23 07:05:52;;;;;;;;;;;;;;;18.86;100.00;100428.78;5053311;28;19917;-52
2023/04/23 07:08:18;;;;;;;;;;;;;;;18.85;100.00;100426.31;5053896;28;19932;-54
2023/04/23 07:10:44;;;;;;;;;;;;;;;18.32;100.00;100429.72;5053692;28;19945;-54
2023/04/23 07:13:09;;;;;;;;;;;;;;;18.58;100.00;100422.63;5053663;28;19928;-50
2023/04/23 07:15:36;;;;;;;;;;;;;;;18.49;100.00;100416.88;5053538;28;19917;-54
2023/04/23 07:18:03;;;;;;;;;;;;;;;18.47;100.00;100435.28;5053581;28;19931;-55
2023/04/23 07:20:29;;;;;;;;;;;;;;;18.11;100.00;100424.13;5053739;28;19913;-54
2023/04/23 07:22:57;;;;;;;;;;;;;;;18.57;100.00;100418.31;5053344;28;19924;-53
2023/04/23 07:25:23;;;;;;;;;;;;;;;18.48;100.00;100431.50;5053594;28;19924;-54
2023/04/23 07:27:49;;;;;;;;;;;;;;;18.48;100.00;100428.78;5053460;28;19943;-54
2023/04/23 07:30:15;;;;;;;;;;;;;;;18.78;100.00;100421.97;5052522;28;19944;-55
2023/04/23 07:32:40;;;;;;;;;;;;;;;19.08;100.00;100418.91;5053486;28;19948;-52
2023/04/23 07:35:05;;;;;;;;;;;;;;;18.62;100.00;100412.91;5053448;28;19940;-53
2023/04/23 07:37:31;;;;;;;;;;;;;;;18.90;100.00;100426.34;5053503;28;19928;-54
2023/04/23 07:39:57;;;;;;;;;;;;;;;18.90;100.00;100413.63;5053348;28;19925;-54
2023/04/23 07:42:22;;;;;;;;;;;;;;;19.06;100.00;100409.13;5053168;28;19985;-53
2023/04/23 07:44:47;;;;;;;;;;;;;;;19.43;100.00;100418.25;5053182;28;19917;-55
2023/04/23 07:47:13;;;;;;;;;;;;;;;19.56;100.00;100430.50;5053207;28;19917;-50
2023/04/23 07:49:38;;;;;;;;;;;;;;;19.76;100.00;100421.63;5050537;28;19945;-56
2023/04/23 07:52:04;;;;;;;;;;;;;;;19.92;100.00;100411.66;5053462;28;19941;-49
2023/04/23 07:54:30;;;;;;;;;;;;;;;19.97;100.00;100418.16;5072948;28;19942;-53
2023/04/23 07:56:56;;;;;;;;;;;;;;;20.08;100.00;100411.69;5073189;28;19921;-53
2023/04/23 07:59:21;;;;;;;;;;;;;;;20.10;100.00;100406.78;5073016;28;19917;-51
2023/04/23 08:01:47;;;;;;;;;;;;;;;19.68;100.00;100403.13;5072928;28;19920;-52
2023/04/23 08:04:13;;;;;;;;;;;;;;;19.98;100.00;100407.03;5072896;28;19932;-50
2023/04/23 08:06:38;;;;;;;;;;;;;;;19.93;100.00;100404.31;5072193;28;19952;-50
2023/04/23 08:09:05;;;;;;;;;;;;;;;20.33;100.00;100405.44;5072066;28;19936;-53
2023/04/23 08:11:31;;;;;;;;;;;;;;;19.73;100.00;100403.19;5072935;28;19916;-52
2023/04/23 08:13:57;;;;;;;;;;;;;;;19.91;100.00;100415.44;5072547;28;19923;-50
2023/04/23 08:16:24;;;;;;;;;;;;;;;19.98;100.00;100393.47;5072885;28;19925;-54
2023/04/23 08:18:49;;;;;;;;;;;;;;;20.43;100.00;100407.31;5074511;28;19916;-56
2023/04/23 08:21:15;;;;;;;;;;;;;;;20.54;100.00;100404.63;5076795;28;19923;-51
2023/04/23 08:23:40;;;;;;;;;;;;;;;20.59;100.00;100399.97;5076497;28;19917;-54
2023/04/23 08:26:06;;;;;;;;;;;;;;;20.54;100.00;100401.91;5076883;28;20387;-54
2023/04/23 08:28:31;;;;;;;;;;;;;;;21.26;100.00;100401.75;5076659;28;19931;-51
2023/04/23 08:30:57;;;;;;;;;;;;;;;21.21;100.00;100401.75;5076769;28;20005;-53
2023/04/23 08:33:22;;;;;;;;;;;;;;;21.57;100.00;100404.31;5076710;28;19916;-49
2023/04/23 08:35:48;;;;;;;;;;;;;;;21.13;100.00;100399.63;5076709;28;19917;-53
2023/04/23 08:38:13;;;;;;;;;;;;;;;20.89;100.00;100400.22;5075118;28;19925;-56
2023/04/23 08:40:40;;;;;;;;;;;;;;;21.97;100.00;100407.09;5076480;28;19924;-54
2023/04/23 08:43:08;;;;;;;;;;;;;;;21.58;100.00;100410.59;5076378;28;19927;-49
2023/04/23 08:45:40;;;;;;;;;;;;;;;21.83;100.00;100406.91;5076165;28;19961;-53
2023/04/23 08:48:06;;;;;;;;;;;;;;;21.42;100.00;100401.66;5076346;28;19944;-55
2023/04/23 08:50:32;;;;;;;;;;;;;;;21.53;100.00;100397.81;5076356;28;20138;-51
2023/04/23 08:52:57;;;;;;;;;;;;;;;21.35;100.00;100396.56;5068055;28;19977;-56
2023/04/23 08:55:23;;;;;;;;;;;;;;;21.45;100.00;100401.09;5056272;28;20394;-55
2023/04/23 08:57:50;;;;;;;;;;;;;;;21.80;98.46;100391.16;5056061;28;19955;-53
2023/04/23 09:00:19;;;;;;;;;;;;;;;22.02;97.47;100407.06;5056287;28;19917;-53
2023/04/23 09:02:46;;;;;;;;;;;;;;;22.09;98.39;100404.00;5056128;28;20012;-53
2023/04/23 09:05:13;;;;;;;;;;;;;;;22.13;98.35;100396.09;5056136;28;19921;-53
2023/04/23 09:07:39;;;;;;;;;;;;;;;22.72;95.08;100399.69;5056054;28;19913;-53
2023/04/23 09:10:05;;;;;;;;;;;;;;;22.98;93.79;100396.69;5055670;28;19963;-50
2023/04/23 09:12:31;;;;;;;;;;;;;;;23.26;94.96;100387.94;5055522;28;19967;-55
2023/04/23 09:14:57;;;;;;;;;;;;;;;23.03;91.46;100385.72;5055742;28;19917;-53
2023/04/23 09:17:23;;;;;;;;;;;;;;;23.32;86.77;100390.31;5055968;28;19921;-54
2023/04/23 09:19:53;;;;;;;;;;;;;;;24.56;84.50;100384.09;5056064;28;19952;-52
2023/04/23 09:22:37;;;;;;;;;;;;;;;24.20;83.48;100393.72;5055899;28;19917;-53
2023/04/23 09:25:04;;;;;;;;;;;;;;;24.68;79.77;100400.00;5055209;28;19923;-51
2023/04/23 09:27:30;;;;;;;;;;;;;;;25.48;79.09;100394.34;5055819;28;19917;-54
2023/04/23 09:29:58;;;;;;;;;;;;;;;25.35;74.15;100401.44;5037856;28;19917;-52
2023/04/23 09:32:34;;;;;;;;;;;;;;;25.48;73.99;100394.34;5055365;28;19990;-53
2023/04/23 09:35:01;;;;;;;;;;;;;;;25.72;73.50;100388.63;5055625;28;19985;-53
2023/04/23 09:37:27;;;;;;;;;;;;;;;25.84;71.14;100396.28;5055602;28;19917;-54
2023/04/23 09:39:55;;;;;;;;;;;;;;;26.47;67.41;100401.88;5055227;28;19971;-55
2023/04/23 09:42:22;;;;;;;;;;;;;;;26.27;66.75;100399.66;5055558;28;19913;-54
2023/04/23 09:44:54;;;;;;;;;;;;;;;26.65;66.70;100396.50;5055244;28;19913;-54
2023/04/23 09:47:20;;;;;;;;;;;;;;;27.26;64.85;100395.94;5055549;28;19951;-55
2023/04/23 09:49:46;;;;;;;;;;;;;;;27.10;64.14;100409.25;5055123;28;19916;-54
2023/04/23 09:52:12;;;;;;;;;;;;;;;27.57;61.00;100397.78;5057218;28;19984;-52
2023/04/23 09:54:38;;;;;;;;;;;;;;;27.30;60.59;100393.34;5075376;28;19932;-53
2023/04/23 09:57:05;;;;;;;;;;;;;;;28.50;59.06;100394.00;5075450;28;19936;-52
2023/04/23 09:59:31;;;;;;;;;;;;;;;29.48;56.14;100397.88;5074854;28;19931;-55
2023/04/23 10:02:00;;;;;;;;;;;;;;;27.37;58.00;100387.38;5075039;28;19916;-53
2023/04/23 10:04:25;;;;;;;;;;;;;;;27.99;58.02;100385.50;5074946;28;19924;-56
2023/04/23 10:06:54;;;;;;;;;;;;;;;27.42;56.14;100382.53;5074690;28;19924;-57
2023/04/23 10:09:23;;;;;;;;;;;;;;;26.62;58.76;100381.47;5074375;28;19916;-51
2023/04/23 10:11:52;;;;;;;;;;;;;;;26.96;56.90;100378.41;5074194;28;19944;-55
2023/04/23 10:14:21;;;;;;;;;;;;;;;26.66;56.45;100384.41;5074343;28;19916;-54
2023/04/23 10:16:49;;;;;;;;;;;;;;;26.25;56.25;100382.72;5072559;28;19969;-54
2023/04/23 10:19:16;;;;;;;;;;;;;;;26.42;56.26;100377.34;5072628;28;19927;-53
2023/04/23 10:21:43;;;;;;;;;;;;;;;26.83;56.28;100375.41;5073213;28;19996;-52
2023/04/23 10:24:09;;;;;;;;;;;;;;;26.95;55.67;100391.31;5071505;28;19924;-52
2023/04/23 10:26:36;;;;;;;;;;;;;;;25.94;56.80;100381.50;5073271;28;19955;-56
2023/04/23 10:29:03;;;;;;;;;;;;;;;24.72;58.04;100379.97;5073329;28;19917;-53
2023/04/23 10:31:31;;;;;;;;;;;;;;;24.97;57.33;100377.88;5074077;28;19917;-53
2023/04/23 10:33:57;;;;;;;;;;;;;;;25.39;56.89;100366.06;5073651;28;19960;-53
2023/04/23 10:36:24;;;;;;;;;;;;;;;25.53;56.04;100375.06;5074243;28;19925;-50
2023/04/23 10:38:50;;;;;;;;;;;;;;;25.76;55.19;100389.63;5074124;28;19917;-51
2023/04/23 10:41:18;;;;;;;;;;;;;;;25.46;55.87;100353.56;5073174;28;19980;-53
2023/04/23 10:43:44;;;;;;;;;;;;;;;25.65;55.60;100362.78;5073881;28;19955;-55
2023/04/23 10:46:26;;;;;;;;;;;;;;;25.91;53.98;100363.78;5073501;28;19924;-54
2023/04/23 10:49:15;;;;;;;;;;;;;;;26.40;54.63;100357.66;5072758;28;19931;-54
2023/04/23 10:51:44;;;;;;;;;;;;;;;26.08;53.85;100356.00;5073315;28;19916;-57
2023/04/23 10:54:10;;;;;;;;;;;;;;;26.17;52.67;100349.47;5073540;28;19920;-57
2023/04/23 10:56:39;;;;;;;;;;;;;;;26.81;52.74;100343.97;5073858;28;20015;-54
2023/04/23 10:59:06;;;;;;;;;;;;;;;27.51;52.14;100333.16;5072607;28;19917;-56
2023/04/23 11:01:32;;;;;;;;;;;;;;;27.10;51.54;100340.66;5073091;28;19916;-51
2023/04/23 11:03:57;;;;;;;;;;;;;;;27.22;52.75;100331.84;5073119;28;19917;-54
2023/04/23 11:06:42;;;;;;;;;;;;;;;26.59;51.57;100348.41;5073551;28;19927;-56
2023/04/23 11:09:27;;;;;;;;;;;;;;;26.76;51.83;100329.28;5073397;28;19928;-53
2023/04/23 11:11:53;;;;;;;;;;;;;;;26.48;52.69;100334.97;5073665;28;19990;-56
2023/04/23 11:14:18;;;;;;;;;;;;;;;26.53;53.42;100335.97;5073692;28;19993;-53
2023/04/23 11:16:44;;;;;;;;;;;;;;;26.29;53.66;100326.16;5073462;28;19925;-53
2023/04/23 11:19:11;;;;;;;;;;;;;;;26.64;54.06;100326.31;5073688;28;19924;-54
2023/04/23 11:21:55;;;;;;;;;;;;;;;27.14;53.65;100319.72;5073568;28;19916;-55
2023/04/23 11:24:24;;;;;;;;;;;;;;;27.80;52.74;100314.41;5072911;28;19928;-57
2023/04/23 11:26:51;;;;;;;;;;;;;;;27.78;52.27;100306.47;5073477;28;19951;-56
2023/04/23 11:29:19;;;;;;;;;;;;;;;27.85;50.72;100304.03;5073104;28;20047;-52
2023/04/23 11:31:44;;;;;;;;;;;;;;;26.75;51.56;100324.91;5073183;28;19916;-54
2023/04/23 11:34:10;;;;;;;;;;;;;;;26.72;52.96;100287.13;5073053;28;19955;-56
2023/04/23 11:36:36;;;;;;;;;;;;;;;27.31;52.64;100290.63;5073249;28;19928;-53
2023/04/23 11:39:02;;;;;;;;;;;;;;;26.84;50.45;100302.19;5073103;28;19939;-52
2023/04/23 11:41:29;;;;;;;;;;;;;;;26.77;51.35;100308.94;5073249;28;19920;-54
2023/04/23 11:43:54;;;;;;;;;;;;;;;26.04;52.98;100282.66;5073146;28;19952;-54
2023/04/23 11:46:19;;;;;;;;;;;;;;;25.50;53.66;100263.47;5072950;28;19917;-56
2023/04/23 11:48:45;;;;;;;;;;;;;;;25.52;53.34;100257.69;5073210;28;19917;-51
2023/04/23 11:51:10;;;;;;;;;;;;;;;25.78;53.86;100266.06;5071392;28;19943;-54
2023/04/23 11:53:43;;;;;;;;;;;;;;;26.00;54.25;100251.53;5072341;28;19932;-52
2023/04/23 11:56:09;;;;;;;;;;;;;;;26.23;53.52;100256.19;5071123;28;19917;-53
2023/04/23 11:58:34;;;;;;;;;;;;;;;26.20;53.32;100263.13;5071766;28;19917;-54
2023/04/23 12:01:01;;;;;;;;;;;;;;;25.91;54.14;100248.75;5071939;28;19942;-54
2023/04/23 12:03:27;;;;;;;;;;;;;;;25.45;54.58;100253.41;5072040;28;19917;-53
2023/04/23 12:05:55;;;;;;;;;;;;;;;24.91;54.32;100239.59;5070956;28;19951;-56
2023/04/23 12:08:20;;;;;;;;;;;;;;;25.56;54.69;100234.84;5072483;28;20010;-55
2023/04/23 12:10:50;;;;;;;;;;;;;;;25.31;55.70;100233.53;5070577;28;19921;-53
2023/04/23 12:13:16;;;;;;;;;;;;;;;25.83;55.04;100235.00;5071929;28;19972;-52
2023/04/23 12:15:48;;;;;;;;;;;;;;;25.53;55.05;100227.25;5070825;28;19917;-55
2023/04/23 12:18:14;;;;;;;;;;;;;;;26.28;53.45;100232.19;5071806;28;19936;-55
2023/04/23 12:20:40;;;;;;;;;;;;;;;26.93;52.07;100225.44;5069692;28;19925;-53
2023/04/23 12:23:05;;;;;;;;;;;;;;;27.66;51.55;100224.75;5068204;28;19916;-53
2023/04/23 12:25:31;;;;;;;;;;;;;;;29.17;49.79;100228.38;5068384;28;19917;-53
2023/04/23 12:28:00;;;;;;;;;;;;;;;28.68;48.17;100224.19;5072217;28;19917;-56